createdAt,value
2022-08-20T00:00:13.855Z,21.30
2022-08-20T00:04:22.568Z,21.40
2022-08-20T00:08:32.224Z,21.50
2022-08-20T00:12:46.485Z,21.50
2022-08-20T00:16:55.239Z,21.50
2022-08-20T00:21:08.533Z,21.40
2022-08-20T00:25:18.676Z,21.40
2022-08-20T00:29:27.363Z,21.30
2022-08-20T00:33:36.914Z,21.30
2022-08-20T00:37:45.603Z,21.20
2022-08-20T00:41:54.235Z,21.10
2022-08-20T00:46:05.550Z,21.00
2022-08-20T00:50:17.228Z,20.90
2022-08-20T00:54:29.299Z,21.00
2022-08-20T00:58:39.987Z,21.10
2022-08-20T01:02:50.481Z,21.30
2022-08-20T01:06:59.105Z,21.30
2022-08-20T01:11:12.813Z,21.50
2022-08-20T01:15:30.680Z,21.50
2022-08-20T01:19:37.637Z,21.50
2022-08-20T01:23:57.924Z,21.50
2022-08-20T01:28:06.983Z,21.60
2022-08-20T01:32:35.020Z,21.50
2022-08-20T01:37:03.051Z,21.50
2022-08-20T01:41:31.115Z,21.50
2022-08-20T01:45:40.107Z,21.50
2022-08-20T01:49:52.017Z,21.50
2022-08-20T01:54:10.843Z,21.50
2022-08-20T01:58:20.055Z,21.50
2022-08-20T02:02:29.326Z,21.50
2022-08-20T02:06:41.075Z,21.50
2022-08-20T02:10:51.377Z,21.40
2022-08-20T02:15:00.468Z,21.40
2022-08-20T02:19:12.531Z,21.40
2022-08-20T02:23:21.326Z,21.40
2022-08-20T02:27:30.003Z,21.40
2022-08-20T02:32:23.610Z,21.30
2022-08-20T02:35:51.300Z,21.20
2022-08-20T02:40:00.247Z,21.10
2022-08-20T02:44:09.846Z,21.10
2022-08-20T02:48:21.594Z,21.10
2022-08-20T02:52:30.211Z,21.00
2022-08-20T02:56:39.555Z,20.90
2022-08-20T03:00:49.212Z,20.80
2022-08-20T03:04:57.814Z,20.90
2022-08-20T03:09:08.081Z,21.00
2022-08-20T03:13:17.932Z,20.90
2022-08-20T03:17:26.550Z,21.00
2022-08-20T03:21:35.313Z,21.00
2022-08-20T03:25:43.924Z,21.00
2022-08-20T03:29:52.611Z,21.00
2022-08-20T03:34:01.202Z,21.10
2022-08-20T03:38:12.153Z,21.10
2022-08-20T03:42:21.969Z,21.20
2022-08-20T03:46:30.592Z,21.20
2022-08-20T03:50:41.264Z,21.20
2022-08-20T03:54:49.956Z,21.30
2022-08-20T03:58:58.731Z,21.30
2022-08-20T04:03:08.378Z,21.30
2022-08-20T04:07:24.567Z,21.30
2022-08-20T04:11:33.565Z,21.20
2022-08-20T04:15:43.086Z,21.20
2022-08-20T04:19:51.899Z,21.20
2022-08-20T04:24:00.683Z,21.20
2022-08-20T04:28:14.914Z,21.10
2022-08-20T04:32:23.532Z,21.10
2022-08-20T04:36:51.475Z,21.00
2022-08-20T04:41:00.957Z,21.00
2022-08-20T04:45:10.573Z,21.00
2022-08-20T04:49:20.674Z,21.00
2022-08-20T04:53:30.329Z,21.00
2022-08-20T04:57:39.024Z,21.00
2022-08-20T05:01:47.613Z,21.00
2022-08-20T05:05:56.807Z,21.00
2022-08-20T05:10:07.170Z,21.00
2022-08-20T05:14:35.130Z,21.00
2022-08-20T05:18:44.688Z,21.00
2022-08-20T05:22:56.318Z,21.00
2022-08-20T05:27:05.013Z,20.90
2022-08-20T05:31:15.295Z,20.80
2022-08-20T05:35:23.903Z,20.80
2022-08-20T05:39:36.896Z,20.90
2022-08-20T05:43:42.960Z,20.90
2022-08-20T05:47:56.389Z,20.80
2022-08-20T05:52:21.193Z,20.70
2022-08-20T05:56:39.857Z,20.70
2022-08-20T06:00:49.489Z,20.80
2022-08-20T06:04:58.077Z,20.80
2022-08-20T06:09:06.848Z,20.70
2022-08-20T06:13:35.216Z,20.60
2022-08-20T06:17:43.850Z,20.60
2022-08-20T06:21:52.828Z,20.50
2022-08-20T06:26:03.121Z,20.40
2022-08-20T06:30:14.537Z,20.30
2022-08-20T06:34:24.962Z,20.20
2022-08-20T06:38:33.965Z,20.20
2022-08-20T06:42:48.526Z,20.30
2022-08-20T06:46:56.910Z,20.30
2022-08-20T06:51:06.686Z,20.20
2022-08-20T06:55:17.499Z,20.30
2022-08-20T06:59:26.269Z,20.40
2022-08-20T07:03:34.868Z,20.40
2022-08-20T07:07:46.867Z,20.50
2022-08-20T07:11:56.027Z,20.60
2022-08-20T07:16:05.681Z,20.50
2022-08-20T07:20:15.927Z,20.50
2022-08-20T07:24:24.525Z,20.50
2022-08-20T07:28:35.059Z,20.60
2022-08-20T07:32:45.224Z,20.80
2022-08-20T07:36:54.069Z,20.80
2022-08-20T07:41:06.683Z,20.90
2022-08-20T07:45:17.542Z,21.00
2022-08-20T07:49:45.402Z,20.80
2022-08-20T07:53:54.329Z,20.70
2022-08-20T07:58:06.685Z,20.60
2022-08-20T08:02:15.364Z,20.70
2022-08-20T08:06:29.538Z,20.80
2022-08-20T08:10:37.670Z,20.70
2022-08-20T08:14:48.456Z,20.70
2022-08-20T08:18:58.386Z,20.80
2022-08-20T08:23:31.758Z,20.80
2022-08-20T08:27:26.215Z,20.90
2022-08-20T08:31:35.568Z,21.10
2022-08-20T08:35:47.949Z,21.10
2022-08-20T08:40:16.309Z,21.20
2022-08-20T08:44:28.395Z,21.30
2022-08-20T08:48:40.433Z,21.30
2022-08-20T08:52:52.043Z,21.30
2022-08-20T08:57:01.938Z,21.50
2022-08-20T09:01:53.107Z,21.80
2022-08-20T09:05:27.671Z,21.80
2022-08-20T09:09:41.946Z,22.00
2022-08-20T09:13:51.700Z,22.00
2022-08-20T09:18:00.333Z,22.10
2022-08-20T09:22:14.539Z,22.30
2022-08-20T09:26:42.493Z,22.40
2022-08-20T09:30:51.214Z,22.60
2022-08-20T09:35:00.216Z,22.50
2022-08-20T09:39:09.987Z,22.30
2022-08-20T09:43:38.121Z,22.20
2022-08-20T09:47:56.219Z,22.10
2022-08-20T09:51:58.266Z,22.40
2022-08-20T09:56:07.425Z,22.60
2022-08-20T10:00:16.591Z,22.50
2022-08-20T10:04:25.294Z,22.40
2022-08-20T10:08:34.055Z,22.20
2022-08-20T10:12:43.873Z,22.40
2022-08-20T10:17:00.150Z,22.80
2022-08-20T10:21:13.229Z,23.10
2022-08-20T10:25:22.059Z,23.50
2022-08-20T10:29:31.641Z,23.50
2022-08-20T10:33:41.898Z,23.70
2022-08-20T10:37:50.588Z,23.40
2022-08-20T10:41:59.189Z,23.30
2022-08-20T10:46:07.979Z,23.20
2022-08-20T10:50:19.938Z,23.00
2022-08-20T10:54:28.608Z,23.20
2022-08-20T10:58:39.783Z,23.20
2022-08-20T11:03:07.018Z,23.10
2022-08-20T11:08:00.232Z,22.90
2022-08-20T11:11:41.694Z,23.30
2022-08-20T11:15:50.370Z,23.70
2022-08-20T11:20:00.037Z,23.60
2022-08-20T11:24:08.711Z,23.30
2022-08-20T11:28:31.097Z,23.20
2022-08-20T11:32:28.563Z,23.20
2022-08-20T11:36:38.342Z,23.60
2022-08-20T11:40:47.355Z,24.10
2022-08-20T11:44:55.990Z,24.10
2022-08-20T11:49:05.542Z,24.00
2022-08-20T11:53:14.944Z,24.20
2022-08-20T11:57:25.734Z,24.20
2022-08-20T12:01:34.342Z,24.30
2022-08-20T12:05:45.684Z,24.40
2022-08-20T12:09:55.262Z,24.50
2022-08-20T12:14:03.827Z,24.30
2022-08-20T12:18:12.496Z,23.80
2022-08-20T12:22:24.618Z,23.50
2022-08-20T12:26:32.196Z,23.30
2022-08-20T12:30:41.249Z,23.10
2022-08-20T12:34:50.018Z,23.00
2022-08-20T12:38:58.742Z,23.00
2022-08-20T12:43:08.486Z,23.00
2022-08-20T12:47:22.977Z,23.20
2022-08-20T12:51:31.655Z,23.40
2022-08-20T12:55:40.334Z,23.60
2022-08-20T13:00:10.624Z,23.90
2022-08-20T13:04:19.797Z,23.90
2022-08-20T13:08:29.765Z,23.80
2022-08-20T13:12:38.497Z,23.90
2022-08-20T13:16:47.183Z,23.90
2022-08-20T13:20:57.508Z,24.30
2022-08-20T13:25:07.340Z,24.80
2022-08-20T13:29:17.641Z,25.40
2022-08-20T13:33:26.654Z,25.80
2022-08-20T13:37:35.918Z,25.90
2022-08-20T13:41:45.173Z,25.80
2022-08-20T13:45:53.769Z,25.60
2022-08-20T13:50:11.071Z,25.40
2022-08-20T13:54:19.690Z,25.60
2022-08-20T13:58:28.389Z,26.00
2022-08-20T14:02:37.080Z,26.40
2022-08-20T14:06:45.702Z,26.30
2022-08-20T14:10:54.890Z,26.00
2022-08-20T14:15:03.930Z,25.90
2022-08-20T14:19:31.885Z,26.00
2022-08-20T14:23:40.694Z,26.00
2022-08-20T14:27:50.636Z,26.20
2022-08-20T14:31:59.245Z,26.00
2022-08-20T14:36:08.353Z,25.60
2022-08-20T14:40:18.331Z,25.70
2022-08-20T14:44:28.570Z,26.00
2022-08-20T14:48:37.183Z,26.00
2022-08-20T14:52:46.403Z,26.00
2022-08-20T14:56:55.043Z,26.20
2022-08-20T15:01:03.804Z,26.40
2022-08-20T15:05:13.216Z,26.50
2022-08-20T15:09:21.912Z,26.50
2022-08-20T15:13:31.098Z,26.40
2022-08-20T15:17:41.801Z,26.10
2022-08-20T15:21:50.576Z,25.80
2022-08-20T15:25:59.178Z,25.50
2022-08-20T15:30:28.498Z,25.30
2022-08-20T15:34:56.449Z,25.20
2022-08-20T15:39:05.232Z,25.40
2022-08-20T15:43:13.848Z,25.70
2022-08-20T15:47:28.170Z,25.80
2022-08-20T15:51:45.759Z,25.80
2022-08-20T15:56:00.433Z,25.40
2022-08-20T16:00:24.303Z,25.20
2022-08-20T16:04:51.062Z,25.10
2022-08-20T16:09:14.508Z,25.10
2022-08-20T16:13:41.344Z,25.20
2022-08-20T16:17:53.572Z,25.10
2022-08-20T16:22:04.025Z,25.20
2022-08-20T16:26:24.590Z,25.40
2022-08-20T16:30:41.951Z,25.60
2022-08-20T16:35:08.788Z,25.50
2022-08-20T16:39:26.682Z,25.40
2022-08-20T16:43:38.381Z,25.60
2022-08-20T16:47:48.506Z,25.40
2022-08-20T16:51:57.304Z,25.20
2022-08-20T16:56:07.449Z,25.10
2022-08-20T17:00:33.020Z,24.90
2022-08-20T17:04:58.628Z,24.70
2022-08-20T17:08:57.290Z,24.60
2022-08-20T17:13:19.082Z,24.50
2022-08-20T17:17:30.917Z,24.50
2022-08-20T17:21:40.432Z,24.40
2022-08-20T17:26:07.025Z,24.40
2022-08-20T17:30:21.666Z,24.20
2022-08-20T17:34:33.747Z,24.10
2022-08-20T17:38:47.953Z,24.10
2022-08-20T17:43:05.228Z,24.10
2022-08-20T17:47:16.726Z,24.10
2022-08-20T17:51:40.411Z,24.10
2022-08-20T17:55:52.096Z,24.00
2022-08-20T18:00:23.605Z,24.00
2022-08-20T18:04:32.928Z,23.90
2022-08-20T18:08:53.568Z,23.80
2022-08-20T18:13:08.255Z,23.60
2022-08-20T18:17:25.761Z,23.50
2022-08-20T18:21:47.263Z,23.40
2022-08-20T18:26:02.204Z,23.40
2022-08-20T18:30:13.894Z,23.30
2022-08-20T18:34:25.580Z,23.30
2022-08-20T18:38:37.299Z,23.20
2022-08-20T18:42:46.345Z,23.10
2022-08-20T18:47:01.291Z,23.00
2022-08-20T18:51:12.395Z,22.90
2022-08-20T18:55:38.795Z,22.80
2022-08-20T18:59:50.419Z,22.70
2022-08-20T19:03:59.025Z,22.60
2022-08-20T19:08:08.438Z,22.50
2022-08-20T19:12:22.947Z,22.40
2022-08-20T19:16:46.861Z,22.30
2022-08-20T19:21:01.188Z,22.30
2022-08-20T19:25:11.897Z,22.20
2022-08-20T19:29:23.945Z,22.20
2022-08-20T19:33:32.792Z,22.20
2022-08-20T19:37:51.633Z,22.10
2022-08-20T19:42:11.218Z,22.00
2022-08-20T19:46:31.779Z,22.00
2022-08-20T19:50:55.379Z,21.90
2022-08-20T19:55:04.463Z,21.90
2022-08-20T19:59:16.135Z,21.80
2022-08-20T20:03:37.829Z,21.70
2022-08-20T20:07:52.021Z,21.60
2022-08-20T20:12:04.055Z,21.50
2022-08-20T20:16:15.067Z,21.40
2022-08-20T20:20:36.644Z,21.30
2022-08-20T20:24:49.072Z,21.30
2022-08-20T20:29:15.892Z,21.20
2022-08-20T20:33:38.965Z,21.10
2022-08-20T20:37:51.336Z,21.10
2022-08-20T20:42:02.326Z,21.10
2022-08-20T20:46:25.137Z,21.10
2022-08-20T20:50:35.927Z,21.10
2022-08-20T20:54:46.761Z,21.10
2022-08-20T20:58:55.993Z,21.20
2022-08-20T21:03:05.083Z,21.20
2022-08-20T21:07:16.785Z,21.20
2022-08-20T21:11:25.904Z,21.10
2022-08-20T21:15:35.175Z,21.10
2022-08-20T21:19:45.351Z,21.10
2022-08-20T21:23:54.179Z,21.00
2022-08-20T21:28:03.044Z,20.90
2022-08-20T21:32:12.524Z,20.90
2022-08-20T21:36:21.971Z,20.80
2022-08-20T21:40:30.648Z,20.80
2022-08-20T21:44:40.107Z,20.70
2022-08-20T21:48:50.362Z,20.70
2022-08-20T21:53:12.711Z,20.50
2022-08-20T21:57:12.291Z,20.40
2022-08-20T22:01:40.217Z,20.20
2022-08-20T22:05:49.997Z,20.10
2022-08-20T22:09:58.604Z,20.10
2022-08-20T22:14:09.437Z,20.00
2022-08-20T22:18:18.744Z,19.90
2022-08-20T22:22:27.345Z,19.90
2022-08-20T22:26:38.910Z,19.80
2022-08-20T22:30:47.585Z,19.80
2022-08-20T22:34:56.202Z,19.70
2022-08-20T22:39:05.587Z,19.60
2022-08-20T22:43:15.214Z,19.60
2022-08-20T22:47:27.053Z,19.60
2022-08-20T22:51:38.718Z,19.50
2022-08-20T22:55:48.278Z,19.40
2022-08-20T22:59:56.887Z,19.40
2022-08-20T23:04:11.583Z,19.40
2022-08-20T23:08:20.191Z,19.30
2022-08-20T23:12:28.824Z,19.30
2022-08-20T23:16:40.523Z,19.20
2022-08-20T23:20:55.769Z,19.20
2022-08-20T23:25:07.581Z,19.10
2022-08-20T23:29:16.333Z,19.10
2022-08-20T23:33:26.753Z,19.00
2022-08-20T23:37:55.891Z,19.00
2022-08-20T23:42:05.325Z,19.00
2022-08-20T23:46:14.073Z,18.90
2022-08-20T23:50:42.200Z,18.90
2022-08-20T23:54:51.654Z,18.80
2022-08-20T23:59:00.397Z,18.80
